sensor_id;sensor_type;location;lat;lon;timestamp;pressure;altitude;pressure_sealevel;temperature;humidity
75555;BME280;66087;53.126;17.960;2023-05-14T00:01:29;101488.56;;;12.05;54.61
75555;BME280;66087;53.126;17.960;2023-05-14T00:03:55;101481.41;;;12.01;54.66
75555;BME280;66087;53.126;17.960;2023-05-14T00:06:22;101482.95;;;12.05;54.36
75555;BME280;66087;53.126;17.960;2023-05-14T00:08:49;101480.60;;;12.05;54.41
75555;BME280;66087;53.126;17.960;2023-05-14T00:11:16;101475.30;;;12.06;54.42
75555;BME280;66087;53.126;17.960;2023-05-14T00:13:42;101471.96;;;12.04;55.08
75555;BME280;66087;53.126;17.960;2023-05-14T00:16:10;101473.48;;;11.98;55.13
75555;BME280;66087;53.126;17.960;2023-05-14T00:18:37;101474.77;;;11.90;56.13
75555;BME280;66087;53.126;17.960;2023-05-14T00:21:03;101475.66;;;11.81;56.11
75555;BME280;66087;53.126;17.960;2023-05-14T00:23:30;101472.98;;;11.74;56.23
75555;BME280;66087;53.126;17.960;2023-05-14T00:25:57;101478.89;;;11.68;56.40
75555;BME280;66087;53.126;17.960;2023-05-14T00:28:24;101477.67;;;11.60;56.62
75555;BME280;66087;53.126;17.960;2023-05-14T00:30:50;101473.25;;;11.55;57.07
75555;BME280;66087;53.126;17.960;2023-05-14T00:33:22;101470.55;;;11.51;57.34
75555;BME280;66087;53.126;17.960;2023-05-14T00:35:51;101470.39;;;11.47;57.94
75555;BME280;66087;53.126;17.960;2023-05-14T00:38:17;101467.16;;;11.41;57.83
75555;BME280;66087;53.126;17.960;2023-05-14T00:40:48;101465.30;;;11.33;58.04
75555;BME280;66087;53.126;17.960;2023-05-14T00:43:18;101461.67;;;11.25;58.04
75555;BME280;66087;53.126;17.960;2023-05-14T00:45:48;101462.63;;;11.18;58.28
75555;BME280;66087;53.126;17.960;2023-05-14T00:48:20;101458.44;;;11.11;58.45
75555;BME280;66087;53.126;17.960;2023-05-14T00:50:49;101460.86;;;11.04;58.82
75555;BME280;66087;53.126;17.960;2023-05-14T00:53:18;101465.92;;;10.97;58.80
75555;BME280;66087;53.126;17.960;2023-05-14T00:55:45;101461.58;;;10.96;58.92
75555;BME280;66087;53.126;17.960;2023-05-14T00:58:14;101461.35;;;10.95;58.91
75555;BME280;66087;53.126;17.960;2023-05-14T01:00:41;101465.71;;;10.94;58.46
75555;BME280;66087;53.126;17.960;2023-05-14T01:03:08;101468.80;;;10.96;58.69
75555;BME280;66087;53.126;17.960;2023-05-14T01:05:51;101471.60;;;10.96;59.01
75555;BME280;66087;53.126;17.960;2023-05-14T01:08:48;101474.17;;;10.93;58.84
75555;BME280;66087;53.126;17.960;2023-05-14T01:11:21;101470.67;;;10.92;58.82
75555;BME280;66087;53.126;17.960;2023-05-14T01:16:39;101471.90;;;11.01;58.88
75555;BME280;66087;53.126;17.960;2023-05-14T01:19:09;101470.90;;;11.01;59.80
75555;BME280;66087;53.126;17.960;2023-05-14T01:21:44;101469.89;;;10.96;59.67
75555;BME280;66087;53.126;17.960;2023-05-14T01:24:12;101470.36;;;10.90;59.64
75555;BME280;66087;53.126;17.960;2023-05-14T01:26:45;101464.08;;;10.82;60.03
75555;BME280;66087;53.126;17.960;2023-05-14T01:29:18;101462.68;;;10.75;59.91
75555;BME280;66087;53.126;17.960;2023-05-14T01:31:49;101462.52;;;10.70;60.05
75555;BME280;66087;53.126;17.960;2023-05-14T01:34:21;101463.37;;;10.67;60.32
75555;BME280;66087;53.126;17.960;2023-05-14T01:36:50;101463.23;;;10.66;60.63
75555;BME280;66087;53.126;17.960;2023-05-14T01:39:17;101457.32;;;10.65;60.25
75555;BME280;66087;53.126;17.960;2023-05-14T01:41:45;101459.95;;;10.66;60.14
75555;BME280;66087;53.126;17.960;2023-05-14T01:44:12;101458.10;;;10.69;60.29
75555;BME280;66087;53.126;17.960;2023-05-14T01:46:38;101457.46;;;10.70;59.86
75555;BME280;66087;53.126;17.960;2023-05-14T01:49:05;101459.88;;;10.69;60.06
75555;BME280;66087;53.126;17.960;2023-05-14T01:51:32;101453.04;;;10.68;59.93
75555;BME280;66087;53.126;17.960;2023-05-14T01:53:59;101450.17;;;10.69;59.98
75555;BME280;66087;53.126;17.960;2023-05-14T01:56:26;101450.41;;;10.70;60.14
75555;BME280;66087;53.126;17.960;2023-05-14T01:58:53;101445.35;;;10.67;60.47
75555;BME280;66087;53.126;17.960;2023-05-14T02:01:21;101443.87;;;10.59;61.12
75555;BME280;66087;53.126;17.960;2023-05-14T02:03:51;101442.40;;;10.48;61.20
75555;BME280;66087;53.126;17.960;2023-05-14T02:06:17;101440.46;;;10.39;61.36
75555;BME280;66087;53.126;17.960;2023-05-14T02:08:44;101440.84;;;10.32;61.48
75555;BME280;66087;53.126;17.960;2023-05-14T02:11:11;101437.33;;;10.29;61.53
75555;BME280;66087;53.126;17.960;2023-05-14T02:13:38;101436.23;;;10.28;61.52
75555;BME280;66087;53.126;17.960;2023-05-14T02:16:05;101438.02;;;10.29;61.61
75555;BME280;66087;53.126;17.960;2023-05-14T02:18:32;101438.11;;;10.30;61.64
75555;BME280;66087;53.126;17.960;2023-05-14T02:20:59;101435.71;;;10.30;61.60
75555;BME280;66087;53.126;17.960;2023-05-14T02:23:26;101438.19;;;10.27;61.11
75555;BME280;66087;53.126;17.960;2023-05-14T02:25:53;101439.04;;;10.22;61.47
75555;BME280;66087;53.126;17.960;2023-05-14T02:28:19;101439.95;;;10.15;61.69
75555;BME280;66087;53.126;17.960;2023-05-14T02:30:46;101434.56;;;10.11;62.03
75555;BME280;66087;53.126;17.960;2023-05-14T02:33:13;101435.50;;;10.08;62.12
75555;BME280;66087;53.126;17.960;2023-05-14T02:35:40;101432.94;;;10.05;61.83
75555;BME280;66087;53.126;17.960;2023-05-14T02:38:06;101430.13;;;10.05;62.00
75555;BME280;66087;53.126;17.960;2023-05-14T02:40:33;101427.09;;;10.05;61.84
75555;BME280;66087;53.126;17.960;2023-05-14T02:43:02;101426.33;;;10.05;62.17
75555;BME280;66087;53.126;17.960;2023-05-14T02:45:29;101427.65;;;10.07;62.52
75555;BME280;66087;53.126;17.960;2023-05-14T02:47:55;101425.09;;;10.06;62.58
75555;BME280;66087;53.126;17.960;2023-05-14T02:50:22;101425.23;;;10.05;62.28
75555;BME280;66087;53.126;17.960;2023-05-14T02:52:49;101422.98;;;10.06;62.39
75555;BME280;66087;53.126;17.960;2023-05-14T02:55:16;101417.63;;;10.03;62.68
75555;BME280;66087;53.126;17.960;2023-05-14T02:57:42;101416.38;;;9.98;63.14
75555;BME280;66087;53.126;17.960;2023-05-14T03:00:10;101418.53;;;9.94;63.24
75555;BME280;66087;53.126;17.960;2023-05-14T03:02:37;101414.33;;;9.90;63.22
75555;BME280;66087;53.126;17.960;2023-05-14T03:05:04;101416.98;;;9.87;63.86
75555;BME280;66087;53.126;17.960;2023-05-14T03:07:31;101416.56;;;9.81;63.72
75555;BME280;66087;53.126;17.960;2023-05-14T03:09:58;101421.54;;;9.80;63.58
75555;BME280;66087;53.126;17.960;2023-05-14T03:12:27;101424.86;;;9.81;63.31
75555;BME280;66087;53.126;17.960;2023-05-14T03:14:54;101428.45;;;9.85;63.30
75555;BME280;66087;53.126;17.960;2023-05-14T03:17:21;101425.73;;;9.84;63.88
75555;BME280;66087;53.126;17.960;2023-05-14T03:19:50;101427.04;;;9.78;63.56
75555;BME280;66087;53.126;17.960;2023-05-14T03:22:17;101428.64;;;9.72;63.88
75555;BME280;66087;53.126;17.960;2023-05-14T03:24:46;101427.39;;;9.69;64.05
75555;BME280;66087;53.126;17.960;2023-05-14T03:27:13;101426.14;;;9.67;64.14
75555;BME280;66087;53.126;17.960;2023-05-14T03:29:40;101427.77;;;9.68;64.52
75555;BME280;66087;53.126;17.960;2023-05-14T03:32:06;101421.96;;;9.71;63.95
75555;BME280;66087;53.126;17.960;2023-05-14T03:34:33;101421.11;;;9.74;64.21
75555;BME280;66087;53.126;17.960;2023-05-14T03:37:00;101424.01;;;9.78;63.93
75555;BME280;66087;53.126;17.960;2023-05-14T03:39:29;101422.09;;;9.84;64.00
75555;BME280;66087;53.126;17.960;2023-05-14T03:41:56;101421.61;;;9.85;64.03
75555;BME280;66087;53.126;17.960;2023-05-14T03:44:24;101415.11;;;9.87;63.81
75555;BME280;66087;53.126;17.960;2023-05-14T03:46:51;101414.64;;;9.90;63.87
75555;BME280;66087;53.126;17.960;2023-05-14T03:49:18;101412.25;;;9.97;63.79
75555;BME280;66087;53.126;17.960;2023-05-14T03:51:44;101411.34;;;10.05;63.77
75555;BME280;66087;53.126;17.960;2023-05-14T03:54:11;101411.67;;;10.12;63.41
75555;BME280;66087;53.126;17.960;2023-05-14T03:56:40;101407.04;;;10.19;63.60
75555;BME280;66087;53.126;17.960;2023-05-14T03:59:08;101405.57;;;10.27;63.43
75555;BME280;66087;53.126;17.960;2023-05-14T04:01:35;101404.57;;;10.33;63.46
75555;BME280;66087;53.126;17.960;2023-05-14T04:04:02;101406.83;;;10.39;63.80
75555;BME280;66087;53.126;17.960;2023-05-14T04:06:29;101406.89;;;10.42;63.83
75555;BME280;66087;53.126;17.960;2023-05-14T04:08:56;101406.66;;;10.45;63.90
75555;BME280;66087;53.126;17.960;2023-05-14T04:11:23;101411.33;;;10.51;63.51
75555;BME280;66087;53.126;17.960;2023-05-14T04:13:50;101405.73;;;10.58;63.42
75555;BME280;66087;53.126;17.960;2023-05-14T04:16:16;101408.84;;;10.63;63.44
75555;BME280;66087;53.126;17.960;2023-05-14T04:18:43;101410.00;;;10.67;63.31
75555;BME280;66087;53.126;17.960;2023-05-14T04:21:10;101409.90;;;10.73;63.17
75555;BME280;66087;53.126;17.960;2023-05-14T04:23:37;101408.89;;;10.80;63.21
75555;BME280;66087;53.126;17.960;2023-05-14T04:26:04;101409.34;;;10.86;63.19
75555;BME280;66087;53.126;17.960;2023-05-14T04:28:30;101413.06;;;10.93;63.19
75555;BME280;66087;53.126;17.960;2023-05-14T04:31:00;101411.48;;;11.00;62.92
75555;BME280;66087;53.126;17.960;2023-05-14T04:33:26;101413.04;;;11.08;62.90
75555;BME280;66087;53.126;17.960;2023-05-14T04:35:53;101410.51;;;11.16;62.81
75555;BME280;66087;53.126;17.960;2023-05-14T04:38:20;101410.10;;;11.24;62.65
75555;BME280;66087;53.126;17.960;2023-05-14T04:40:46;101406.02;;;11.34;62.25
75555;BME280;66087;53.126;17.960;2023-05-14T04:43:13;101408.31;;;11.45;62.31
75555;BME280;66087;53.126;17.960;2023-05-14T04:45:40;101405.86;;;11.55;62.32
75555;BME280;66087;53.126;17.960;2023-05-14T04:48:07;101401.77;;;11.65;62.33
75555;BME280;66087;53.126;17.960;2023-05-14T04:50:36;101401.26;;;11.75;62.04
75555;BME280;66087;53.126;17.960;2023-05-14T04:53:05;101396.84;;;11.88;61.84
75555;BME280;66087;53.126;17.960;2023-05-14T04:55:32;101393.64;;;11.99;61.71
75555;BME280;66087;53.126;17.960;2023-05-14T04:57:59;101393.66;;;12.09;61.41
75555;BME280;66087;53.126;17.960;2023-05-14T05:00:30;101393.11;;;12.21;61.40
75555;BME280;66087;53.126;17.960;2023-05-14T05:02:57;101399.73;;;12.30;61.21
75555;BME280;66087;53.126;17.960;2023-05-14T05:05:24;101394.99;;;12.38;61.06
75555;BME280;66087;53.126;17.960;2023-05-14T05:07:51;101392.89;;;12.48;60.77
75555;BME280;66087;53.126;17.960;2023-05-14T05:10:17;101392.41;;;12.58;60.63
75555;BME280;66087;53.126;17.960;2023-05-14T05:12:46;101392.77;;;12.68;60.45
75555;BME280;66087;53.126;17.960;2023-05-14T05:15:12;101391.28;;;12.78;60.05
75555;BME280;66087;53.126;17.960;2023-05-14T05:17:40;101393.41;;;12.92;60.00
75555;BME280;66087;53.126;17.960;2023-05-14T05:20:07;101392.77;;;13.07;60.07
75555;BME280;66087;53.126;17.960;2023-05-14T05:22:35;101392.05;;;13.26;59.19
75555;BME280;66087;53.126;17.960;2023-05-14T05:25:02;101387.17;;;13.47;58.43
75555;BME280;66087;53.126;17.960;2023-05-14T05:27:34;101385.35;;;13.72;57.71
75555;BME280;66087;53.126;17.960;2023-05-14T05:30:02;101383.91;;;13.96;57.09
75555;BME280;66087;53.126;17.960;2023-05-14T05:32:30;101386.64;;;14.22;56.83
75555;BME280;66087;53.126;17.960;2023-05-14T05:34:57;101388.47;;;14.45;56.50
75555;BME280;66087;53.126;17.960;2023-05-14T05:37:24;101388.73;;;14.62;56.11
75555;BME280;66087;53.126;17.960;2023-05-14T05:39:50;101387.95;;;14.79;56.03
75555;BME280;66087;53.126;17.960;2023-05-14T05:42:17;101385.79;;;14.95;55.42
75555;BME280;66087;53.126;17.960;2023-05-14T05:44:44;101386.23;;;15.12;55.17
75555;BME280;66087;53.126;17.960;2023-05-14T05:47:11;101381.58;;;15.30;54.51
75555;BME280;66087;53.126;17.960;2023-05-14T05:49:39;101382.42;;;15.45;54.05
75555;BME280;66087;53.126;17.960;2023-05-14T05:52:05;101376.53;;;15.59;54.07
75555;BME280;66087;53.126;17.960;2023-05-14T05:54:33;101381.33;;;15.75;53.96
75555;BME280;66087;53.126;17.960;2023-05-14T05:56:59;101378.17;;;15.93;53.54
75555;BME280;66087;53.126;17.960;2023-05-14T05:59:26;101377.41;;;16.09;53.09
75555;BME280;66087;53.126;17.960;2023-05-14T06:01:53;101378.57;;;16.26;53.43
75555;BME280;66087;53.126;17.960;2023-05-14T06:04:20;101372.24;;;16.41;52.23
75555;BME280;66087;53.126;17.960;2023-05-14T06:06:48;101374.09;;;16.55;52.48
75555;BME280;66087;53.126;17.960;2023-05-14T06:09:16;101370.75;;;16.72;52.21
75555;BME280;66087;53.126;17.960;2023-05-14T06:11:43;101369.55;;;16.88;51.53
75555;BME280;66087;53.126;17.960;2023-05-14T06:14:09;101369.92;;;17.03;51.52
75555;BME280;66087;53.126;17.960;2023-05-14T06:16:36;101369.41;;;17.20;51.20
75555;BME280;66087;53.126;17.960;2023-05-14T06:19:05;101369.55;;;17.34;50.31
75555;BME280;66087;53.126;17.960;2023-05-14T06:21:33;101371.55;;;17.47;50.09
75555;BME280;66087;53.126;17.960;2023-05-14T06:24:03;101375.90;;;17.62;49.63
75555;BME280;66087;53.126;17.960;2023-05-14T06:26:29;101373.44;;;17.79;48.68
75555;BME280;66087;53.126;17.960;2023-05-14T06:28:56;101371.63;;;17.99;47.97
75555;BME280;66087;53.126;17.960;2023-05-14T06:31:25;101368.36;;;18.19;47.77
75555;BME280;66087;53.126;17.960;2023-05-14T06:33:52;101371.09;;;18.42;47.40
75555;BME280;66087;53.126;17.960;2023-05-14T06:36:18;101378.48;;;18.61;46.83
75555;BME280;66087;53.126;17.960;2023-05-14T06:38:45;101380.36;;;18.75;47.29
75555;BME280;66087;53.126;17.960;2023-05-14T06:41:12;101379.88;;;18.80;46.57
75555;BME280;66087;53.126;17.960;2023-05-14T06:43:38;101375.92;;;18.80;45.99
75555;BME280;66087;53.126;17.960;2023-05-14T06:46:05;101367.15;;;18.74;45.45
75555;BME280;66087;53.126;17.960;2023-05-14T06:48:32;101368.70;;;18.62;45.79
75555;BME280;66087;53.126;17.960;2023-05-14T06:50:59;101363.94;;;18.51;45.65
75555;BME280;66087;53.126;17.960;2023-05-14T06:53:25;101365.46;;;18.40;46.08
75555;BME280;66087;53.126;17.960;2023-05-14T06:55:52;101361.39;;;18.28;46.05
75555;BME280;66087;53.126;17.960;2023-05-14T06:58:19;101358.23;;;18.16;45.37
75555;BME280;66087;53.126;17.960;2023-05-14T07:00:47;101358.95;;;18.04;45.21
75555;BME280;66087;53.126;17.960;2023-05-14T07:03:13;101360.51;;;17.95;45.77
75555;BME280;66087;53.126;17.960;2023-05-14T07:05:40;101357.52;;;17.93;45.52
75555;BME280;66087;53.126;17.960;2023-05-14T07:08:09;101358.13;;;17.91;45.64
75555;BME280;66087;53.126;17.960;2023-05-14T07:10:36;101353.11;;;17.95;45.95
75555;BME280;66087;53.126;17.960;2023-05-14T07:13:04;101351.72;;;18.11;45.73
75555;BME280;66087;53.126;17.960;2023-05-14T07:15:31;101348.83;;;18.23;45.76
75555;BME280;66087;53.126;17.960;2023-05-14T07:17:58;101349.70;;;18.32;45.35
75555;BME280;66087;53.126;17.960;2023-05-14T07:20:25;101350.37;;;18.38;44.43
75555;BME280;66087;53.126;17.960;2023-05-14T07:22:53;101349.30;;;18.46;44.20
75555;BME280;66087;53.126;17.960;2023-05-14T07:25:20;101345.97;;;18.59;44.08
75555;BME280;66087;53.126;17.960;2023-05-14T07:27:46;101346.98;;;18.71;43.88
75555;BME280;66087;53.126;17.960;2023-05-14T07:30:13;101341.79;;;18.77;43.16
75555;BME280;66087;53.126;17.960;2023-05-14T07:32:43;101334.91;;;18.78;43.04
75555;BME280;66087;53.126;17.960;2023-05-14T07:35:09;101332.86;;;18.78;42.60
75555;BME280;66087;53.126;17.960;2023-05-14T07:37:37;101328.83;;;18.78;43.67
75555;BME280;66087;53.126;17.960;2023-05-14T07:40:04;101323.23;;;18.83;43.46
75555;BME280;66087;53.126;17.960;2023-05-14T07:42:31;101321.52;;;18.85;43.19
75555;BME280;66087;53.126;17.960;2023-05-14T07:44:58;101318.20;;;18.83;42.15
75555;BME280;66087;53.126;17.960;2023-05-14T07:47:27;101318.31;;;18.82;42.38
75555;BME280;66087;53.126;17.960;2023-05-14T07:49:56;101318.21;;;18.83;42.32
75555;BME280;66087;53.126;17.960;2023-05-14T07:52:23;101310.80;;;18.85;41.91
75555;BME280;66087;53.126;17.960;2023-05-14T07:54:50;101306.62;;;18.87;41.40
75555;BME280;66087;53.126;17.960;2023-05-14T07:57:18;101303.27;;;18.91;41.64
75555;BME280;66087;53.126;17.960;2023-05-14T07:59:52;101302.73;;;18.95;41.87
75555;BME280;66087;53.126;17.960;2023-05-14T08:02:18;101301.91;;;19.02;41.74
75555;BME280;66087;53.126;17.960;2023-05-14T08:04:45;101300.45;;;19.09;41.28
75555;BME280;66087;53.126;17.960;2023-05-14T08:07:12;101296.79;;;19.16;41.72
75555;BME280;66087;53.126;17.960;2023-05-14T08:09:39;101294.86;;;19.25;41.69
75555;BME280;66087;53.126;17.960;2023-05-14T08:12:05;101293.19;;;19.34;41.67
75555;BME280;66087;53.126;17.960;2023-05-14T08:14:33;101295.55;;;19.43;41.72
75555;BME280;66087;53.126;17.960;2023-05-14T08:16:59;101287.41;;;19.52;41.08
75555;BME280;66087;53.126;17.960;2023-05-14T08:19:26;101286.83;;;19.59;41.28
75555;BME280;66087;53.126;17.960;2023-05-14T08:21:55;101282.44;;;19.66;41.85
75555;BME280;66087;53.126;17.960;2023-05-14T08:24:22;101282.61;;;19.75;41.78
75555;BME280;66087;53.126;17.960;2023-05-14T08:26:49;101280.42;;;19.85;41.60
75555;BME280;66087;53.126;17.960;2023-05-14T08:29:19;101278.63;;;19.95;41.08
75555;BME280;66087;53.126;17.960;2023-05-14T08:31:46;101280.58;;;20.05;39.98
75555;BME280;66087;53.126;17.960;2023-05-14T08:34:13;101274.21;;;20.14;39.54
75555;BME280;66087;53.126;17.960;2023-05-14T08:36:40;101276.02;;;20.23;39.33
75555;BME280;66087;53.126;17.960;2023-05-14T08:39:08;101270.11;;;20.32;39.29
75555;BME280;66087;53.126;17.960;2023-05-14T08:41:35;101266.12;;;20.40;38.77
75555;BME280;66087;53.126;17.960;2023-05-14T08:44:12;101260.06;;;20.48;39.11
75555;BME280;66087;53.126;17.960;2023-05-14T08:46:39;101262.45;;;20.58;39.41
75555;BME280;66087;53.126;17.960;2023-05-14T08:49:32;101262.80;;;20.68;38.20
75555;BME280;66087;53.126;17.960;2023-05-14T08:52:01;101256.02;;;20.75;38.23
75555;BME280;66087;53.126;17.960;2023-05-14T08:54:28;101254.23;;;20.83;38.53
75555;BME280;66087;53.126;17.960;2023-05-14T08:56:58;101248.87;;;20.91;38.21
75555;BME280;66087;53.126;17.960;2023-05-14T08:59:27;101245.41;;;20.96;37.15
75555;BME280;66087;53.126;17.960;2023-05-14T09:01:55;101247.13;;;21.00;36.86
75555;BME280;66087;53.126;17.960;2023-05-14T09:04:26;101246.06;;;21.04;36.98
75555;BME280;66087;53.126;17.960;2023-05-14T09:06:55;101240.80;;;21.12;37.08
75555;BME280;66087;53.126;17.960;2023-05-14T09:09:25;101244.34;;;21.22;36.59
75555;BME280;66087;53.126;17.960;2023-05-14T09:11:52;101240.06;;;21.31;35.89
75555;BME280;66087;53.126;17.960;2023-05-14T09:14:21;101240.49;;;21.44;35.84
75555;BME280;66087;53.126;17.960;2023-05-14T09:16:50;101236.02;;;21.54;35.95
75555;BME280;66087;53.126;17.960;2023-05-14T09:19:25;101227.39;;;21.66;35.47
75555;BME280;66087;53.126;17.960;2023-05-14T09:21:55;101227.38;;;21.64;35.57
75555;BME280;66087;53.126;17.960;2023-05-14T09:24:27;101223.99;;;21.62;34.92
75555;BME280;66087;53.126;17.960;2023-05-14T09:26:57;101219.67;;;21.62;35.10
75555;BME280;66087;53.126;17.960;2023-05-14T09:29:25;101220.09;;;21.61;35.22
75555;BME280;66087;53.126;17.960;2023-05-14T09:31:53;101216.19;;;21.62;34.87
75555;BME280;66087;53.126;17.960;2023-05-14T09:34:25;101211.96;;;21.64;34.23
75555;BME280;66087;53.126;17.960;2023-05-14T09:36:55;101211.48;;;21.75;34.27
75555;BME280;66087;53.126;17.960;2023-05-14T09:39:24;101217.75;;;21.88;34.64
75555;BME280;66087;53.126;17.960;2023-05-14T09:41:52;101211.26;;;22.05;34.57
75555;BME280;66087;53.126;17.960;2023-05-14T09:44:19;101210.75;;;22.25;34.07
75555;BME280;66087;53.126;17.960;2023-05-14T09:46:49;101210.77;;;22.55;33.40
75555;BME280;66087;53.126;17.960;2023-05-14T09:49:23;101203.88;;;22.80;32.76
75555;BME280;66087;53.126;17.960;2023-05-14T09:51:50;101201.36;;;22.97;32.76
75555;BME280;66087;53.126;17.960;2023-05-14T09:54:17;101200.19;;;23.18;31.72
75555;BME280;66087;53.126;17.960;2023-05-14T09:56:44;101194.06;;;23.31;32.41
75555;BME280;66087;53.126;17.960;2023-05-14T09:59:11;101188.20;;;23.38;32.02
75555;BME280;66087;53.126;17.960;2023-05-14T10:01:41;101185.05;;;23.26;31.33
75555;BME280;66087;53.126;17.960;2023-05-14T10:04:10;101182.02;;;23.04;30.95
75555;BME280;66087;53.126;17.960;2023-05-14T10:06:38;101175.75;;;23.00;30.91
75555;BME280;66087;53.126;17.960;2023-05-14T10:09:12;101165.46;;;23.14;30.67
75555;BME280;66087;53.126;17.960;2023-05-14T10:11:42;101160.86;;;23.32;29.92
75555;BME280;66087;53.126;17.960;2023-05-14T10:14:18;101168.20;;;23.43;30.46
75555;BME280;66087;53.126;17.960;2023-05-14T10:16:49;101168.36;;;23.55;29.92
75555;BME280;66087;53.126;17.960;2023-05-14T10:19:17;101166.16;;;23.48;27.98
75555;BME280;66087;53.126;17.960;2023-05-14T10:21:52;101163.15;;;23.49;29.28
75555;BME280;66087;53.126;17.960;2023-05-14T10:24:21;101160.17;;;23.62;29.10
75555;BME280;66087;53.126;17.960;2023-05-14T10:26:49;101153.25;;;23.93;28.72
75555;BME280;66087;53.126;17.960;2023-05-14T10:29:15;101148.46;;;24.25;27.66
75555;BME280;66087;53.126;17.960;2023-05-14T10:31:52;101138.92;;;24.55;27.35
75555;BME280;66087;53.126;17.960;2023-05-14T10:34:33;101137.30;;;24.73;26.95
75555;BME280;66087;53.126;17.960;2023-05-14T10:37:07;101134.77;;;24.73;26.74
75555;BME280;66087;53.126;17.960;2023-05-14T10:39:42;101132.86;;;24.68;26.70
75555;BME280;66087;53.126;17.960;2023-05-14T10:42:12;101130.17;;;24.54;26.46
75555;BME280;66087;53.126;17.960;2023-05-14T10:44:47;101130.83;;;24.41;27.08
75555;BME280;66087;53.126;17.960;2023-05-14T10:47:15;101130.04;;;24.37;26.56
75555;BME280;66087;53.126;17.960;2023-05-14T10:49:44;101124.90;;;24.39;26.54
75555;BME280;66087;53.126;17.960;2023-05-14T10:52:16;101126.02;;;24.42;26.44
75555;BME280;66087;53.126;17.960;2023-05-14T10:54:55;101120.59;;;24.45;26.26
75555;BME280;66087;53.126;17.960;2023-05-14T10:57:25;101112.86;;;24.39;25.22
75555;BME280;66087;53.126;17.960;2023-05-14T10:59:54;101117.42;;;24.29;25.52
75555;BME280;66087;53.126;17.960;2023-05-14T11:02:27;101117.15;;;24.20;26.07
75555;BME280;66087;53.126;17.960;2023-05-14T11:05:01;101106.61;;;24.09;25.64
75555;BME280;66087;53.126;17.960;2023-05-14T11:07:39;101111.45;;;23.96;25.44
75555;BME280;66087;53.126;17.960;2023-05-14T11:10:08;101112.91;;;23.92;25.52
75555;BME280;66087;53.126;17.960;2023-05-14T11:12:37;101103.91;;;23.96;25.11
75555;BME280;66087;53.126;17.960;2023-05-14T11:15:07;101101.35;;;24.08;25.08
75555;BME280;66087;53.126;17.960;2023-05-14T11:17:36;101097.05;;;24.21;24.64
75555;BME280;66087;53.126;17.960;2023-05-14T11:20:09;101091.43;;;24.38;24.91
75555;BME280;66087;53.126;17.960;2023-05-14T11:22:37;101088.41;;;24.61;25.07
75555;BME280;66087;53.126;17.960;2023-05-14T11:25:06;101083.98;;;24.99;24.86
75555;BME280;66087;53.126;17.960;2023-05-14T11:27:35;101076.71;;;25.39;24.15
75555;BME280;66087;53.126;17.960;2023-05-14T11:30:03;101071.70;;;25.61;24.23
75555;BME280;66087;53.126;17.960;2023-05-14T11:32:31;101065.88;;;25.66;23.18
75555;BME280;66087;53.126;17.960;2023-05-14T11:34:58;101070.10;;;25.41;23.84
75555;BME280;66087;53.126;17.960;2023-05-14T11:37:25;101083.41;;;25.06;24.14
75555;BME280;66087;53.126;17.960;2023-05-14T11:39:59;101077.48;;;24.79;24.73
75555;BME280;66087;53.126;17.960;2023-05-14T11:42:29;101074.27;;;24.56;24.72
75555;BME280;66087;53.126;17.960;2023-05-14T11:44:56;101070.42;;;24.41;24.83
75555;BME280;66087;53.126;17.960;2023-05-14T11:47:23;101066.94;;;24.27;24.81
75555;BME280;66087;53.126;17.960;2023-05-14T11:49:49;101065.26;;;24.11;24.86
75555;BME280;66087;53.126;17.960;2023-05-14T11:52:16;101069.95;;;23.95;24.84
75555;BME280;66087;53.126;17.960;2023-05-14T11:54:44;101067.67;;;23.85;25.20
75555;BME280;66087;53.126;17.960;2023-05-14T11:57:16;101067.88;;;23.85;25.63
75555;BME280;66087;53.126;17.960;2023-05-14T11:59:44;101066.05;;;23.93;25.74
75555;BME280;66087;53.126;17.960;2023-05-14T12:02:12;101062.86;;;24.26;25.44
75555;BME280;66087;53.126;17.960;2023-05-14T12:04:42;101057.71;;;24.66;25.34
75555;BME280;66087;53.126;17.960;2023-05-14T12:07:13;101052.17;;;24.92;25.24
75555;BME280;66087;53.126;17.960;2023-05-14T12:09:43;101049.32;;;25.23;24.98
75555;BME280;66087;53.126;17.960;2023-05-14T12:12:20;101041.55;;;25.55;24.85
75555;BME280;66087;53.126;17.960;2023-05-14T12:14:49;101030.89;;;25.96;23.99
75555;BME280;66087;53.126;17.960;2023-05-14T12:17:19;101031.52;;;26.30;23.54
75555;BME280;66087;53.126;17.960;2023-05-14T12:19:48;101029.76;;;26.80;23.70
75555;BME280;66087;53.126;17.960;2023-05-14T12:22:18;101030.27;;;27.32;23.44
75555;BME280;66087;53.126;17.960;2023-05-14T12:24:55;101026.02;;;27.83;22.65
75555;BME280;66087;53.126;17.960;2023-05-14T12:27:23;101025.14;;;28.23;22.08
75555;BME280;66087;53.126;17.960;2023-05-14T12:30:07;101018.74;;;28.53;22.08
75555;BME280;66087;53.126;17.960;2023-05-14T12:32:34;101006.92;;;28.60;20.91
75555;BME280;66087;53.126;17.960;2023-05-14T12:35:03;101007.40;;;28.39;21.32
75555;BME280;66087;53.126;17.960;2023-05-14T12:37:30;101011.10;;;28.30;21.59
75555;BME280;66087;53.126;17.960;2023-05-14T12:39:57;101011.42;;;28.33;21.09
75555;BME280;66087;53.126;17.960;2023-05-14T12:42:24;101009.05;;;28.06;21.65
75555;BME280;66087;53.126;17.960;2023-05-14T12:44:52;101007.42;;;27.74;21.20
75555;BME280;66087;53.126;17.960;2023-05-14T12:47:20;101007.95;;;27.27;21.27
75555;BME280;66087;53.126;17.960;2023-05-14T12:49:49;101004.46;;;26.87;21.42